Terminal Aerodrome Forecast
Issued by NWS Wichita, KS

Home | Current Version | Previous Version | Text Only | Print | Product List | Glossary Off
Versions: 1 2 3 4 5 6 7 8 9 10 11 12 13 14 15

674
FTUS43 KICT 020328 AAA
TAFICT
TAF AMD
KICT 020328Z 0203/0224 36007KT P6SM VCSH SCT025 OVC035
     FM021200 36012KT P6SM OVC040
     FM021600 34009KT P6SM SCT080=

USA.gov is the U.S. government's official web portal to all federal, state and local government web resources and services.